createdAt,value
2019-04-11T00:00:36.755Z,5.57
2019-04-11T00:03:09.126Z,6.67
2019-04-11T00:05:41.250Z,6.20
2019-04-11T00:08:12.542Z,6.37
2019-04-11T00:10:45.075Z,5.70
2019-04-11T00:13:23.493Z,6.47
2019-04-11T00:15:49.345Z,7.00
2019-04-11T00:18:20.816Z,6.27
2019-04-11T00:20:52.733Z,6.60
2019-04-11T00:23:24.183Z,6.47
2019-04-11T00:25:56.008Z,6.03
2019-04-11T00:28:27.862Z,6.87
2019-04-11T00:30:58.967Z,7.03
2019-04-11T00:33:30.172Z,6.13
2019-04-11T00:36:01.391Z,7.13
2019-04-11T00:38:36.145Z,6.63
2019-04-11T00:41:08.081Z,7.23
2019-04-11T00:43:42.115Z,6.73
2019-04-11T00:46:12.036Z,6.90
2019-04-11T00:48:44.467Z,7.30
2019-04-11T00:51:18.771Z,7.10
2019-04-11T00:54:00.586Z,7.30
2019-04-11T00:56:34.555Z,6.53
2019-04-11T00:59:07.950Z,6.47
2019-04-11T01:01:44.945Z,7.73
2019-04-11T01:04:15.992Z,7.10
2019-04-11T01:06:47.400Z,7.10
2019-04-11T01:09:18.604Z,7.10
2019-04-11T01:11:49.508Z,6.57
2019-04-11T01:14:21.611Z,7.50
2019-04-11T01:16:54.833Z,7.80
2019-04-11T01:19:29.014Z,7.23
2019-04-11T01:22:01.886Z,7.03
2019-04-11T01:24:33.642Z,7.77
2019-04-11T01:27:05.590Z,8.67
2019-04-11T01:29:39.716Z,7.83
2019-04-11T01:32:13.997Z,7.87
2019-04-11T01:34:48.965Z,7.97
2019-04-11T01:37:23.942Z,8.53
2019-04-11T01:39:59.214Z,7.70
2019-04-11T01:42:33.521Z,7.67
2019-04-11T01:45:07.857Z,8.93
2019-04-11T01:48:04.119Z,8.67
2019-04-11T01:50:37.064Z,8.17
2019-04-11T01:53:08.975Z,8.23
2019-04-11T01:55:45.022Z,8.20
2019-04-11T01:58:18.369Z,9.10
2019-04-11T02:00:58.853Z,8.37
2019-04-11T02:03:59.383Z,8.83
2019-04-11T02:06:36.238Z,7.67
2019-04-11T02:09:14.092Z,7.17
2019-04-11T02:11:45.719Z,8.57
2019-04-11T02:14:19.251Z,8.87
2019-04-11T02:16:51.139Z,8.30
2019-04-11T02:19:22.329Z,7.77
2019-04-11T02:21:55.038Z,8.93
2019-04-11T02:24:44.524Z,8.70
2019-04-11T02:27:21.598Z,8.67
2019-04-11T02:29:53.046Z,8.63
2019-04-11T02:32:27.051Z,8.07
2019-04-11T02:34:59.344Z,9.57
2019-04-11T02:37:31.774Z,8.10
2019-04-11T02:40:05.276Z,7.93
2019-04-11T02:42:36.553Z,8.80
2019-04-11T02:45:23.067Z,8.30
2019-04-11T02:47:43.927Z,8.57
2019-04-11T02:50:17.120Z,8.67
2019-04-11T02:52:47.486Z,8.83
2019-04-11T02:55:19.611Z,8.00
2019-04-11T02:57:54.339Z,8.20
2019-04-11T03:00:26.751Z,9.10
2019-04-11T03:02:59.439Z,8.53
2019-04-11T03:05:34.508Z,10.00
2019-04-11T03:08:07.853Z,9.20
2019-04-11T03:10:37.832Z,8.73
2019-04-11T03:13:12.681Z,9.47
2019-04-11T03:15:59.459Z,8.80
2019-04-11T03:18:37.414Z,9.60
2019-04-11T03:20:56.684Z,9.83
2019-04-11T03:23:23.540Z,9.47
2019-04-11T03:25:56.710Z,9.93
2019-04-11T03:28:31.338Z,10.00
2019-04-11T03:31:37.321Z,9.00
2019-04-11T03:37:00.150Z,8.77
2019-04-11T03:39:00.274Z,9.57
2019-04-11T03:41:27.112Z,9.13
2019-04-11T03:43:58.030Z,9.53
2019-04-11T03:46:40.190Z,8.73
2019-04-11T03:49:05.076Z,9.77
2019-04-11T03:51:27.734Z,9.60
2019-04-11T03:54:01.107Z,10.10
2019-04-11T03:56:33.117Z,9.17
2019-04-11T03:59:06.105Z,9.73
2019-04-11T04:01:42.458Z,9.43
2019-04-11T04:04:19.999Z,10.37
2019-04-11T04:06:50.767Z,10.77
2019-04-11T04:09:23.785Z,10.57
2019-04-11T04:11:56.658Z,10.83
2019-04-11T04:14:44.520Z,10.57
2019-04-11T04:17:35.427Z,10.37
2019-04-11T04:20:29.684Z,10.23
2019-04-11T04:23:29.578Z,10.10
2019-04-11T04:26:03.013Z,10.47
2019-04-11T04:28:35.560Z,9.27
2019-04-11T04:31:07.505Z,10.27
2019-04-11T04:33:40.345Z,9.60
2019-04-11T04:36:16.032Z,10.40
2019-04-11T04:38:48.897Z,11.80
2019-04-11T04:41:30.759Z,10.17
2019-04-11T04:43:54.899Z,10.90
2019-04-11T04:46:45.346Z,9.67
2019-04-11T04:49:00.089Z,10.03
2019-04-11T04:51:31.896Z,10.03
2019-04-11T04:54:03.950Z,11.03
2019-04-11T04:56:36.924Z,10.77
2019-04-11T04:59:10.084Z,10.50
2019-04-11T05:01:41.705Z,11.00
2019-04-11T05:04:15.618Z,11.37
2019-04-11T05:06:48.359Z,10.60
2019-04-11T05:09:18.874Z,10.23
2019-04-11T05:11:53.157Z,9.70
2019-04-11T05:14:27.332Z,10.87
2019-04-11T05:17:00.443Z,9.80
2019-04-11T05:19:32.049Z,10.40
2019-04-11T05:22:03.244Z,10.83
2019-04-11T05:24:34.843Z,10.93
2019-04-11T05:27:06.353Z,10.90
2019-04-11T05:29:41.868Z,10.53
2019-04-11T05:32:13.407Z,10.67
2019-04-11T05:34:49.553Z,10.30
2019-04-11T05:37:23.523Z,10.37
2019-04-11T05:39:58.794Z,10.50
2019-04-11T05:42:31.111Z,10.50
2019-04-11T05:45:03.267Z,11.20
2019-04-11T05:47:35.218Z,9.90
2019-04-11T05:53:03.140Z,11.07
2019-04-11T05:55:42.129Z,12.27
2019-04-11T05:58:14.360Z,9.87
2019-04-11T06:01:15.412Z,10.97
2019-04-11T06:03:49.215Z,9.77
2019-04-11T06:06:52.798Z,10.27
2019-04-11T06:09:31.348Z,11.57
2019-04-11T06:12:13.688Z,10.10
2019-04-11T06:14:51.254Z,9.83
2019-04-11T06:17:24.038Z,8.77
2019-04-11T06:20:17.733Z,10.57
2019-04-11T06:23:17.223Z,9.90
2019-04-11T06:25:57.400Z,10.73
2019-04-11T06:28:36.603Z,9.33
2019-04-11T06:31:26.600Z,10.63
2019-04-11T06:34:03.480Z,10.93
2019-04-11T06:36:51.210Z,10.70
2019-04-11T06:39:40.683Z,10.40
2019-04-11T06:42:31.871Z,11.30
2019-04-11T06:45:21.719Z,10.93
2019-04-11T06:48:02.071Z,9.87
2019-04-11T06:50:39.566Z,10.70
2019-04-11T06:53:11.821Z,11.23
2019-04-11T06:56:04.539Z,14.93
2019-04-11T06:58:39.496Z,10.70
2019-04-11T07:01:14.514Z,10.77
2019-04-11T07:03:58.845Z,10.27
2019-04-11T07:06:32.637Z,10.33
2019-04-11T07:09:39.543Z,11.17
2019-04-11T07:12:18.510Z,11.00
2019-04-11T07:15:23.125Z,11.00
2019-04-11T07:18:14.185Z,9.77
2019-04-11T07:21:00.539Z,13.17
2019-04-11T07:23:51.172Z,10.87
2019-04-11T07:26:41.618Z,11.93
2019-04-11T07:29:41.979Z,10.57
2019-04-11T07:32:25.727Z,11.03
2019-04-11T07:35:15.659Z,10.87
2019-04-11T07:37:50.834Z,11.07
2019-04-11T07:40:41.178Z,12.27
2019-04-11T07:43:41.173Z,11.27
2019-04-11T07:46:49.570Z,11.20
2019-04-11T07:49:33.114Z,10.67
2019-04-11T07:52:06.724Z,11.13
2019-04-11T07:54:39.449Z,11.17
2019-04-11T07:57:26.354Z,11.07
2019-04-11T08:00:17.166Z,11.50
2019-04-11T08:03:14.467Z,13.07
2019-04-11T08:06:03.100Z,12.07
2019-04-11T08:08:51.442Z,11.60
2019-04-11T08:11:29.992Z,12.67
2019-04-11T08:14:38.180Z,12.27
2019-04-11T08:17:27.968Z,11.47
2019-04-11T08:20:08.081Z,11.43
2019-04-11T08:22:51.485Z,11.27
2019-04-11T08:25:42.103Z,11.63
2019-04-11T08:28:16.426Z,12.83
2019-04-11T08:31:16.736Z,13.53
2019-04-11T08:33:48.893Z,11.53
2019-04-11T08:36:40.095Z,11.90
2019-04-11T08:39:17.281Z,12.90
2019-04-11T08:42:07.362Z,11.40
2019-04-11T08:44:44.799Z,11.90
2019-04-11T08:47:22.534Z,11.60
2019-04-11T08:49:58.206Z,11.10
2019-04-11T08:52:48.588Z,11.83
2019-04-11T08:55:45.552Z,10.80
2019-04-11T08:58:16.399Z,12.57
2019-04-11T09:00:56.757Z,10.37
2019-04-11T09:03:56.590Z,10.43
2019-04-11T09:06:20.843Z,11.03
2019-04-11T09:09:11.168Z,10.00
2019-04-11T09:11:48.920Z,10.50
2019-04-11T09:14:50.575Z,9.33
2019-04-11T09:17:28.503Z,9.90
2019-04-11T09:20:23.343Z,10.80
2019-04-11T09:23:05.883Z,10.10
2019-04-11T09:25:55.364Z,9.37
2019-04-11T09:28:35.628Z,9.37
2019-04-11T09:31:44.090Z,9.37
2019-04-11T09:34:41.939Z,9.13
2019-04-11T09:37:27.429Z,9.60
2019-04-11T09:40:20.422Z,9.43
2019-04-11T09:43:11.573Z,9.67
2019-04-11T09:46:19.994Z,9.47
2019-04-11T09:49:22.739Z,9.33
2019-04-11T09:52:20.576Z,8.80
2019-04-11T09:55:01.511Z,9.47
2019-04-11T09:57:38.426Z,11.00
2019-04-11T10:00:31.618Z,8.23
2019-04-11T10:03:27.884Z,8.73
2019-04-11T10:06:30.142Z,9.37
2019-04-11T10:09:02.277Z,9.77
2019-04-11T10:11:54.943Z,9.80
2019-04-11T10:14:31.397Z,9.07
2019-04-11T10:17:24.486Z,9.00
2019-04-11T10:20:02.866Z,9.13
2019-04-11T10:23:10.872Z,9.07
2019-04-11T10:25:47.700Z,8.13
2019-04-11T10:28:37.574Z,8.47
2019-04-11T10:31:20.201Z,9.30
2019-04-11T10:34:16.044Z,9.10
2019-04-11T10:37:12.349Z,11.80
2019-04-11T10:40:08.452Z,10.40
2019-04-11T10:42:42.459Z,9.47
2019-04-11T10:45:34.394Z,8.73
2019-04-11T10:48:07.412Z,10.00
2019-04-11T10:50:56.233Z,10.07
2019-04-11T10:53:27.926Z,10.03
2019-04-11T10:56:24.493Z,9.30
2019-04-11T10:58:59.567Z,9.53
2019-04-11T11:01:49.069Z,10.40
2019-04-11T11:04:38.959Z,10.67
2019-04-11T11:07:13.011Z,11.60
2019-04-11T11:10:03.868Z,9.77
2019-04-11T11:12:43.595Z,9.83
2019-04-11T11:15:25.227Z,10.47
2019-04-11T11:18:39.597Z,10.67
2019-04-11T11:20:55.837Z,10.07
2019-04-11T11:23:42.934Z,11.67
2019-04-11T11:26:34.001Z,10.40
2019-04-11T11:29:40.522Z,10.03
2019-04-11T11:32:36.322Z,10.70
2019-04-11T11:35:42.988Z,10.47
2019-04-11T11:38:24.102Z,11.43
2019-04-11T11:41:21.146Z,10.30
2019-04-11T11:43:59.288Z,10.97
2019-04-11T11:46:54.550Z,11.17
2019-04-11T11:49:44.839Z,9.47
2019-04-11T11:52:31.965Z,10.03
2019-04-11T11:55:12.358Z,10.17
2019-04-11T11:57:57.267Z,9.73
2019-04-11T12:00:30.706Z,10.13
2019-04-11T12:03:13.210Z,8.87
2019-04-11T12:05:52.457Z,9.90
2019-04-11T12:08:58.143Z,9.93
2019-04-11T12:11:30.269Z,10.00
2019-04-11T12:14:24.198Z,9.73
2019-04-11T12:17:32.490Z,8.80
2019-04-11T12:20:29.115Z,9.93
2019-04-11T12:23:02.534Z,9.07
2019-04-11T12:25:39.289Z,8.10
2019-04-11T12:28:21.353Z,8.73
2019-04-11T12:31:03.172Z,9.10
2019-04-11T12:33:52.120Z,9.73
2019-04-11T12:36:30.760Z,8.80
2019-04-11T12:39:24.333Z,9.00
2019-04-11T12:42:15.714Z,10.00
2019-04-11T12:45:06.397Z,8.90
2019-04-11T12:47:40.778Z,9.37
2019-04-11T12:50:43.875Z,9.00
2019-04-11T12:53:37.435Z,9.20
2019-04-11T12:56:24.440Z,9.57
2019-04-11T12:59:07.249Z,9.30
2019-04-11T13:01:57.800Z,10.00
2019-04-11T13:04:33.731Z,8.40
2019-04-11T13:07:35.759Z,9.17
2019-04-11T13:10:33.866Z,9.23
2019-04-11T13:13:16.582Z,9.40
2019-04-11T13:16:11.435Z,9.00
2019-04-11T13:18:49.271Z,9.27
2019-04-11T13:21:34.735Z,9.17
2019-04-11T13:24:24.798Z,9.00
2019-04-11T13:27:26.289Z,9.53
2019-04-11T13:30:27.523Z,9.17
2019-04-11T13:33:09.709Z,8.97
2019-04-11T13:36:06.195Z,8.43
2019-04-11T13:38:41.915Z,8.10
2019-04-11T13:41:50.882Z,8.90
2019-04-11T13:44:28.173Z,8.60
2019-04-11T13:47:20.806Z,8.53
2019-04-11T13:49:56.874Z,8.37
2019-04-11T13:52:50.032Z,8.73
2019-04-11T13:55:35.812Z,8.07
2019-04-11T13:58:38.426Z,8.23
2019-04-11T14:01:12.819Z,8.83
2019-04-11T14:04:02.469Z,7.33
2019-04-11T14:06:35.488Z,7.83
2019-04-11T14:09:38.127Z,8.53
2019-04-11T14:12:26.191Z,8.00
2019-04-11T14:15:05.934Z,7.97
2019-04-11T14:17:56.251Z,7.70
2019-04-11T14:20:35.575Z,7.60
2019-04-11T14:23:34.084Z,7.33
2019-04-11T14:26:28.128Z,8.43
2019-04-11T14:29:19.966Z,7.90
2019-04-11T14:31:57.530Z,8.63
2019-04-11T14:34:49.340Z,7.53
2019-04-11T14:37:55.092Z,8.73
2019-04-11T14:40:42.076Z,8.77
2019-04-11T14:43:32.889Z,8.90
2019-04-11T14:46:23.860Z,8.50
2019-04-11T14:48:58.717Z,7.27
2019-04-11T14:51:59.362Z,7.37
2019-04-11T14:54:43.865Z,8.20
2019-04-11T14:57:40.048Z,9.17
2019-04-11T15:00:25.855Z,8.50
2019-04-11T15:03:25.603Z,8.10
2019-04-11T15:06:24.835Z,8.20
2019-04-11T15:09:30.818Z,9.27
2019-04-11T15:12:19.011Z,8.97
2019-04-11T15:15:23.815Z,9.03
2019-04-11T15:18:00.440Z,8.67
2019-04-11T15:20:55.140Z,8.17
2019-04-11T15:23:26.307Z,8.90
2019-04-11T15:26:23.052Z,8.40
2019-04-11T15:29:07.438Z,9.07
2019-04-11T15:32:05.396Z,8.90
2019-04-11T15:34:45.846Z,8.37
2019-04-11T15:37:48.533Z,8.60
2019-04-11T15:40:28.371Z,7.87
2019-04-11T15:43:17.093Z,8.70
2019-04-11T15:46:01.363Z,8.90
2019-04-11T15:49:00.685Z,8.87
2019-04-11T15:51:37.367Z,8.60
2019-04-11T15:54:19.344Z,8.73
2019-04-11T15:57:00.958Z,8.23
2019-04-11T16:00:05.383Z,8.00
2019-04-11T16:02:56.511Z,8.30
2019-04-11T16:05:49.539Z,8.73
2019-04-11T16:08:43.466Z,7.90
2019-04-11T16:11:34.773Z,7.73
2019-04-11T16:14:24.717Z,7.73
2019-04-11T16:17:16.211Z,9.00
2019-04-11T16:19:53.093Z,8.10
2019-04-11T16:22:43.382Z,8.20
2019-04-11T16:25:20.176Z,8.83
2019-04-11T16:28:13.241Z,7.17
2019-04-11T16:30:52.881Z,7.93
2019-04-11T16:33:48.614Z,8.47
2019-04-11T16:36:37.390Z,8.53
2019-04-11T16:39:27.710Z,8.40
2019-04-11T16:42:02.057Z,8.20
2019-04-11T16:44:54.716Z,8.13
2019-04-11T16:47:53.780Z,8.30
2019-04-11T16:50:26.105Z,7.87
2019-04-11T16:53:03.564Z,7.93
2019-04-11T16:55:36.626Z,8.10
2019-04-11T16:58:07.068Z,7.53
2019-04-11T17:00:59.041Z,8.47
2019-04-11T17:03:44.103Z,7.83
2019-04-11T17:06:32.835Z,8.03
2019-04-11T17:09:12.929Z,8.07
2019-04-11T17:11:43.907Z,7.03
2019-04-11T17:14:14.814Z,7.37
2019-04-11T17:16:50.244Z,8.47
2019-04-11T17:19:21.044Z,8.30
2019-04-11T17:22:20.179Z,8.20
2019-04-11T17:25:17.604Z,7.67
2019-04-11T17:27:53.241Z,8.20
2019-04-11T17:30:24.724Z,8.77
2019-04-11T17:32:56.365Z,8.13
2019-04-11T17:35:31.560Z,8.57
2019-04-11T17:38:01.136Z,8.53
2019-04-11T17:40:34.974Z,7.90
2019-04-11T17:43:08.188Z,8.63
2019-04-11T17:45:39.708Z,9.13
2019-04-11T17:48:11.843Z,8.50
2019-04-11T17:50:48.402Z,7.43
2019-04-11T17:53:19.318Z,7.77
2019-04-11T17:55:52.011Z,8.77
2019-04-11T17:58:26.907Z,7.30
2019-04-11T18:01:05.458Z,7.33
2019-04-11T18:03:41.853Z,8.00
2019-04-11T18:06:12.364Z,8.03
2019-04-11T18:08:46.421Z,8.27
2019-04-11T18:11:25.750Z,8.97
2019-04-11T18:13:56.287Z,7.57
2019-04-11T18:16:28.828Z,9.23
2019-04-11T18:19:01.161Z,8.73
2019-04-11T18:21:32.061Z,7.73
2019-04-11T18:24:03.220Z,8.53
2019-04-11T18:26:39.915Z,7.50
2019-04-11T18:29:14.216Z,7.60
2019-04-11T18:31:45.473Z,7.60
2019-04-11T18:34:16.887Z,8.07
2019-04-11T18:36:49.474Z,8.23
2019-04-11T18:39:21.047Z,8.13
2019-04-11T18:41:52.047Z,8.07
2019-04-11T18:44:25.195Z,7.90
2019-04-11T18:46:57.496Z,8.07
2019-04-11T18:49:36.532Z,7.37
2019-04-11T18:52:19.278Z,8.13
2019-04-11T18:54:45.117Z,7.70
2019-04-11T18:57:16.627Z,8.47
2019-04-11T18:59:47.997Z,8.37
2019-04-11T19:02:20.851Z,8.63
2019-04-11T19:04:52.065Z,8.77
2019-04-11T19:07:27.922Z,9.23
2019-04-11T19:10:04.153Z,8.50
2019-04-11T19:12:35.652Z,8.33
2019-04-11T19:15:17.709Z,8.73
2019-04-11T19:18:05.779Z,7.77
2019-04-11T19:20:29.923Z,8.10
2019-04-11T19:23:07.666Z,8.57
2019-04-11T19:25:48.335Z,8.33
2019-04-11T19:28:24.916Z,8.20
2019-04-11T19:30:56.858Z,8.53
2019-04-11T19:33:29.515Z,9.03
2019-04-11T19:36:00.670Z,7.80
2019-04-11T19:38:34.894Z,9.30
2019-04-11T19:41:06.453Z,7.87
2019-04-11T19:43:41.050Z,8.80
2019-04-11T19:46:12.584Z,7.77
2019-04-11T19:48:46.821Z,7.47
2019-04-11T19:51:18.279Z,8.50
2019-04-11T19:53:49.199Z,7.47
2019-04-11T19:56:41.322Z,7.53
2019-04-11T19:59:12.474Z,6.93
2019-04-11T20:01:50.837Z,7.67
2019-04-11T20:04:23.987Z,7.17
2019-04-11T20:06:59.642Z,6.93
2019-04-11T20:09:31.298Z,6.87
2019-04-11T20:12:02.826Z,7.90
2019-04-11T20:14:34.899Z,7.03
2019-04-11T20:17:10.240Z,6.37
2019-04-11T20:19:43.433Z,6.17
2019-04-11T20:22:20.066Z,7.00
2019-04-11T20:24:54.310Z,7.43
2019-04-11T20:27:25.481Z,7.13
2019-04-11T20:29:56.537Z,7.00
2019-04-11T20:32:27.472Z,7.20
2019-04-11T20:34:59.223Z,7.80
2019-04-11T20:37:39.075Z,7.80
2019-04-11T20:40:06.420Z,8.00
2019-04-11T20:42:40.044Z,7.27
2019-04-11T20:45:11.572Z,7.37
2019-04-11T20:47:42.616Z,7.40
2019-04-11T20:50:15.680Z,8.43
2019-04-11T20:52:48.353Z,7.80
2019-04-11T20:55:19.764Z,7.43
2019-04-11T20:57:52.330Z,7.63
2019-04-11T21:00:25.726Z,7.67
2019-04-11T21:02:59.649Z,6.97
2019-04-11T21:05:34.048Z,7.37
2019-04-11T21:08:07.990Z,6.97
2019-04-11T21:10:40.196Z,6.87
2019-04-11T21:13:11.549Z,7.13
2019-04-11T21:15:42.366Z,7.10
2019-04-11T21:18:13.856Z,7.07
2019-04-11T21:20:50.402Z,6.70
2019-04-11T21:23:35.299Z,7.03
2019-04-11T21:26:13.367Z,7.20
2019-04-11T21:28:47.894Z,6.47
2019-04-11T21:31:22.785Z,6.80
2019-04-11T21:33:57.449Z,6.40
2019-04-11T21:36:31.510Z,6.97
2019-04-11T21:39:09.020Z,7.07
2019-04-11T21:41:42.742Z,7.10
2019-04-11T21:44:15.157Z,6.90
2019-04-11T21:46:49.459Z,6.67
2019-04-11T21:49:21.611Z,6.30
2019-04-11T21:51:55.111Z,7.50
2019-04-11T21:54:26.081Z,7.00
2019-04-11T21:56:57.131Z,6.37
2019-04-11T21:59:28.774Z,6.23
2019-04-11T22:02:02.205Z,6.40
2019-04-11T22:04:33.830Z,5.97
2019-04-11T22:07:04.807Z,6.13
2019-04-11T22:09:36.232Z,6.27
2019-04-11T22:12:08.814Z,5.60
2019-04-11T22:14:42.025Z,5.57
2019-04-11T22:17:15.945Z,5.73
2019-04-11T22:19:47.083Z,5.30
2019-04-11T22:22:19.346Z,4.83
2019-04-11T22:24:50.583Z,5.23
2019-04-11T22:27:23.218Z,5.10
2019-04-11T22:29:56.671Z,5.30
2019-04-11T22:32:27.656Z,5.17
2019-04-11T22:34:59.837Z,5.80
2019-04-11T22:37:31.038Z,4.67
2019-04-11T22:40:02.781Z,5.20
2019-04-11T22:42:34.227Z,4.93
2019-04-11T22:45:08.482Z,5.37
2019-04-11T22:47:38.975Z,5.00
2019-04-11T22:50:10.669Z,5.07
2019-04-11T22:52:42.226Z,5.43
2019-04-11T22:55:14.545Z,5.40
2019-04-11T22:57:45.710Z,5.37
2019-04-11T23:00:17.885Z,4.87
2019-04-11T23:02:55.417Z,6.27
2019-04-11T23:05:26.388Z,5.67
2019-04-11T23:07:57.737Z,5.03
2019-04-11T23:10:28.710Z,5.70
2019-04-11T23:13:01.047Z,4.87
2019-04-11T23:15:33.857Z,5.30
2019-04-11T23:18:06.486Z,5.53
2019-04-11T23:20:39.376Z,5.70
2019-04-11T23:23:11.039Z,5.37
2019-04-11T23:25:43.444Z,5.07
2019-04-11T23:28:15.830Z,5.23
2019-04-11T23:30:50.416Z,5.03
2019-04-11T23:33:21.444Z,5.20
2019-04-11T23:35:53.609Z,5.50
2019-04-11T23:38:24.788Z,5.13
2019-04-11T23:40:55.842Z,4.67
2019-04-11T23:43:26.961Z,5.27
2019-04-11T23:45:58.607Z,5.23
2019-04-11T23:48:30.050Z,5.27
2019-04-11T23:51:01.388Z,5.63
2019-04-11T23:53:35.160Z,5.57
2019-04-11T23:56:06.327Z,5.40
2019-04-11T23:58:37.402Z,5.30
